Pikes Falls, Vermont
Current Conditions -  °F | °C
As of 5:54 PM on Thursday 27 Nov 2014 (Local Time) from KDDH Reporting Station
Overcast Overcast  
Wind Chill: -3°   Ceiling: 3500
Heat Index: -3°   Visibility: 9mi
Dew Point: -5°   Wind: 0mph
Humidity: 85%   Direction: NA
Pressure: 29.98"   Gusts: NA
Location:  43.1008°N, 72.8076°W
Report Text: KDDH 272254Z AUTO 00000KT 9SM SCT028 BKN035 OVC070 M03/M05 A2998 RMK AO2 SLP161 T10281050
Loading
Personal Weather Stations






























Interactive Weather Map New forecast layout! Learn more

10-Day Weather Forecast

Advertisements
Track Severe Weather on mobile